Time;durP1;ratioP1;P1;durP2;ratioP2;P2;SDS_P1;SDS_P2;PMS_P1;PMS_P2;Temp;Humidity;BMP_temperature;BMP_pressure;BME280_temperature;BME280_humidity;BME280_pressure;Samples;Min_cycle;Max_cycle;Signal;HPM_P1;HPM_P2
2021/11/24 00:00:25;;;;;;;10.90;7.80;;;-0.40;99.90;;;;;;5028690;28;20572;-68
2021/11/24 00:02:51;;;;;;;9.57;8.20;;;-0.30;99.90;;;;;;5033615;28;20194;-69
2021/11/24 00:05:18;;;;;;;13.87;9.17;;;-0.30;99.90;;;;;;5031631;28;20464;-67
2021/11/24 00:07:44;;;;;;;11.77;8.73;;;-0.40;99.90;;;;;;5033193;28;20429;-67
2021/11/24 00:10:11;;;;;;;10.93;9.30;;;-0.40;99.90;;;;;;5030195;28;20436;-69
2021/11/24 00:12:37;;;;;;;8.70;7.43;;;-0.50;99.90;;;;;;5033537;28;20193;-67
2021/11/24 00:15:04;;;;;;;10.70;7.57;;;-0.50;99.90;;;;;;5026571;28;20527;-68
2021/11/24 00:17:30;;;;;;;10.73;8.83;;;-0.60;99.90;;;;;;5026184;28;20182;-69
2021/11/24 00:19:56;;;;;;;10.30;8.67;;;-0.70;99.90;;;;;;5019159;28;20425;-66
2021/11/24 00:22:21;;;;;;;13.70;8.70;;;-0.80;99.90;;;;;;5020199;28;20699;-67
2021/11/24 00:24:47;;;;;;;12.90;8.60;;;-0.80;99.90;;;;;;5021883;28;20629;-67
2021/11/24 00:27:12;;;;;;;10.23;8.67;;;-0.70;99.90;;;;;;5029904;28;20547;-67
2021/11/24 00:29:38;;;;;;;9.83;8.00;;;-0.70;99.90;;;;;;5028662;28;20293;-67
2021/11/24 00:32:04;;;;;;;10.60;9.20;;;-0.60;99.90;;;;;;5033193;28;20206;-67
2021/11/24 00:34:29;;;;;;;11.77;7.67;;;-0.60;99.90;;;;;;5033281;28;20220;-69
2021/11/24 00:36:55;;;;;;;9.57;7.90;;;-0.60;99.90;;;;;;5033243;28;20695;-66
2021/11/24 00:39:21;;;;;;;10.40;7.40;;;-0.60;99.90;;;;;;5032119;28;20257;-66
2021/11/24 00:41:46;;;;;;;16.10;9.23;;;-0.70;99.90;;;;;;5032238;28;20186;-67
2021/11/24 00:44:12;;;;;;;13.10;8.67;;;-0.70;99.90;;;;;;5032078;28;20198;-66
2021/11/24 00:46:39;;;;;;;9.83;8.00;;;-0.70;99.90;;;;;;5032078;28;20671;-66
2021/11/24 00:49:05;;;;;;;9.90;7.30;;;-0.70;99.90;;;;;;5025837;28;20744;-66
2021/11/24 00:51:30;;;;;;;9.77;7.20;;;-0.70;99.90;;;;;;5025448;28;20426;-66
2021/11/24 00:53:56;;;;;;;8.50;6.30;;;-0.70;99.90;;;;;;5032720;28;20206;-66
2021/11/24 00:56:21;;;;;;;10.27;7.07;;;-0.70;99.90;;;;;;5031668;28;20186;-65
2021/11/24 00:58:47;;;;;;;9.00;7.23;;;-0.70;99.90;;;;;;5031790;28;20257;-66
2021/11/24 01:01:12;;;;;;;10.17;7.00;;;-0.70;99.90;;;;;;5026970;28;20188;-66
2021/11/24 01:03:38;;;;;;;9.50;7.17;;;-0.70;99.90;;;;;;5029636;28;20202;-66
2021/11/24 01:06:04;;;;;;;7.03;5.43;;;-0.80;99.90;;;;;;5031202;28;20182;-65
2021/11/24 01:08:29;;;;;;;12.87;8.13;;;-0.80;99.90;;;;;;5016870;28;20218;-66
2021/11/24 01:10:55;;;;;;;12.43;7.90;;;-0.80;99.90;;;;;;5023521;28;20214;-66
2021/11/24 01:13:22;;;;;;;9.97;6.90;;;-0.80;99.90;;;;;;5030739;28;20202;-66
2021/11/24 01:15:48;;;;;;;8.13;6.63;;;-0.80;99.90;;;;;;5019844;28;20541;-67
2021/11/24 01:18:14;;;;;;;14.80;7.40;;;-0.90;99.90;;;;;;5030013;28;20520;-67
2021/11/24 01:20:41;;;;;;;7.77;6.70;;;-0.90;99.90;;;;;;5031493;28;20930;-67
2021/11/24 01:23:07;;;;;;;9.37;7.17;;;-0.90;99.90;;;;;;5031116;28;20448;-65
2021/11/24 01:25:32;;;;;;;12.87;7.57;;;-0.90;99.90;;;;;;5026908;28;20922;-67
2021/11/24 01:27:58;;;;;;;7.80;7.00;;;-0.90;99.90;;;;;;5018635;28;20195;-66
2021/11/24 01:30:24;;;;;;;11.10;7.53;;;-0.80;99.90;;;;;;5024887;28;20202;-66
2021/11/24 01:32:50;;;;;;;8.60;7.30;;;-0.80;99.90;;;;;;5031951;28;20660;-66
2021/11/24 01:35:15;;;;;;;6.60;5.97;;;-0.80;99.90;;;;;;5031070;28;20432;-66
2021/11/24 01:37:41;;;;;;;10.80;6.40;;;-0.80;99.90;;;;;;5021777;28;20178;-67
2021/11/24 01:40:08;;;;;;;13.60;7.30;;;-0.90;99.90;;;;;;5021245;28;20518;-66
2021/11/24 01:42:34;;;;;;;7.90;7.10;;;-0.90;99.90;;;;;;5011391;28;20546;-67
2021/11/24 01:45:01;;;;;;;8.57;6.57;;;-1.00;99.90;;;;;;5023729;28;20476;-66
2021/11/24 01:47:26;;;;;;;10.93;6.77;;;-1.00;99.90;;;;;;5030882;28;20186;-66
2021/11/24 01:49:52;;;;;;;8.33;6.33;;;-1.00;99.90;;;;;;5025150;28;20999;-68
2021/11/24 01:52:18;;;;;;;9.77;6.53;;;-1.10;99.90;;;;;;5023091;28;20260;-66
2021/11/24 01:54:44;;;;;;;7.80;7.13;;;-1.10;99.90;;;;;;5026168;28;20179;-66
2021/11/24 01:57:10;;;;;;;15.43;6.93;;;-1.10;99.90;;;;;;5029515;28;20526;-67
2021/11/24 01:59:36;;;;;;;7.23;6.50;;;-1.00;99.90;;;;;;5029633;28;20437;-66
2021/11/24 02:02:01;;;;;;;12.00;6.70;;;-1.00;99.90;;;;;;5022918;28;20548;-67
2021/11/24 02:04:27;;;;;;;7.27;6.30;;;-1.00;99.90;;;;;;5017154;28;20221;-66
2021/11/24 02:06:53;;;;;;;12.27;7.57;;;-1.00;99.90;;;;;;5023140;28;20606;-66
2021/11/24 02:09:20;;;;;;;7.07;6.37;;;-1.00;99.90;;;;;;5029659;28;20186;-66
2021/11/24 02:11:47;;;;;;;7.33;6.30;;;-1.00;99.90;;;;;;5025845;28;20252;-66
2021/11/24 02:14:14;;;;;;;7.30;6.07;;;-1.10;99.90;;;;;;5028237;28;20448;-66
2021/11/24 02:16:48;;;;;;;8.83;7.10;;;-1.00;99.90;;;;;;5030617;28;20922;-67
2021/11/24 02:19:14;;;;;;;11.60;8.07;;;-1.10;99.90;;;;;;5025739;28;20430;-66
2021/11/24 02:21:48;;;;;;;9.03;7.67;;;-1.10;99.90;;;;;;5025143;28;20444;-66
2021/11/24 02:24:14;;;;;;;8.70;7.07;;;-1.10;99.90;;;;;;5030990;28;20182;-66
2021/11/24 02:26:40;;;;;;;12.47;8.23;;;-1.10;99.90;;;;;;5031076;28;20437;-67
2021/11/24 02:29:05;;;;;;;9.37;6.70;;;-1.10;99.90;;;;;;5030081;28;20440;-68
2021/11/24 02:31:32;;;;;;;10.70;9.10;;;-1.20;99.90;;;;;;5023470;28;20277;-66
2021/11/24 02:33:57;;;;;;;9.73;7.87;;;-1.10;99.90;;;;;;5028868;28;20560;-65
2021/11/24 02:36:24;;;;;;;11.73;8.40;;;-1.10;99.90;;;;;;5027227;28;20431;-67
2021/11/24 02:38:50;;;;;;;9.33;7.67;;;-1.10;99.90;;;;;;5030458;28;20193;-67
2021/11/24 02:41:16;;;;;;;9.53;7.53;;;-1.00;99.90;;;;;;5030104;28;20449;-66
2021/11/24 02:43:41;;;;;;;9.67;8.07;;;-1.00;99.90;;;;;;5031308;28;20589;-67
2021/11/24 02:46:07;;;;;;;8.90;8.00;;;-1.00;99.90;;;;;;5016920;28;20186;-69
2021/11/24 02:48:33;;;;;;;10.87;7.33;;;-1.00;99.90;;;;;;5020105;28;20830;-66
2021/11/24 02:50:59;;;;;;;10.63;7.40;;;-1.00;99.90;;;;;;5031486;28;20586;-65
2021/11/24 02:53:29;;;;;;;9.90;7.90;;;-1.00;99.90;;;;;;5031359;28;20564;-66
2021/11/24 02:55:55;;;;;;;14.97;7.93;;;-1.00;99.90;;;;;;5029248;28;20190;-67
2021/11/24 02:58:21;;;;;;;8.80;7.17;;;-1.10;99.90;;;;;;5030753;28;20524;-66
2021/11/24 03:00:46;;;;;;;9.53;8.57;;;-1.20;99.90;;;;;;5019542;28;20430;-66
2021/11/24 03:03:12;;;;;;;10.80;8.57;;;-1.20;99.90;;;;;;5026786;28;20844;-66
2021/11/24 03:05:38;;;;;;;11.50;8.70;;;-1.20;99.90;;;;;;5017181;28;20648;-66
2021/11/24 03:08:04;;;;;;;9.07;7.57;;;-1.20;99.90;;;;;;5030620;28;20224;-66
2021/11/24 03:10:30;;;;;;;8.93;8.03;;;-1.20;99.90;;;;;;5024823;28;20348;-66
2021/11/24 03:12:57;;;;;;;9.07;7.40;;;-1.20;99.90;;;;;;5028990;28;20453;-66
2021/11/24 03:15:23;;;;;;;10.33;8.30;;;-1.20;99.90;;;;;;5031826;28;20554;-66
2021/11/24 03:17:48;;;;;;;13.23;9.20;;;-1.20;99.90;;;;;;5032466;28;20538;-66
2021/11/24 03:20:14;;;;;;;10.70;8.13;;;-1.20;99.90;;;;;;5026777;28;20260;-68
2021/11/24 03:22:40;;;;;;;10.20;7.73;;;-1.20;99.90;;;;;;5032244;28;20202;-67
2021/11/24 03:25:07;;;;;;;9.63;8.63;;;-1.20;99.90;;;;;;5024654;28;20183;-66
2021/11/24 03:27:36;;;;;;;8.67;7.63;;;-1.20;99.90;;;;;;5030412;28;20178;-68
2021/11/24 03:30:06;;;;;;;12.43;7.90;;;-1.20;99.90;;;;;;5023714;28;20547;-67
2021/11/24 03:32:32;;;;;;;10.37;7.83;;;-1.20;99.90;;;;;;5032247;28;20444;-66
2021/11/24 03:34:57;;;;;;;10.63;8.80;;;-1.20;99.90;;;;;;5030170;28;20502;-66
2021/11/24 03:37:23;;;;;;;9.83;7.63;;;-1.20;99.90;;;;;;5032913;28;20813;-67
2021/11/24 03:39:49;;;;;;;9.73;8.40;;;-1.20;99.90;;;;;;5034019;28;20181;-66
2021/11/24 03:42:16;;;;;;;12.30;8.60;;;-1.20;99.90;;;;;;5026032;28;20202;-66
2021/11/24 03:44:42;;;;;;;15.53;8.00;;;-1.30;99.90;;;;;;5033279;28;20452;-66
2021/11/24 03:47:08;;;;;;;9.63;7.50;;;-1.30;99.90;;;;;;5017572;28;20438;-68
2021/11/24 03:49:34;;;;;;;8.83;7.20;;;-1.30;99.90;;;;;;5026116;28;20467;-66
2021/11/24 03:52:01;;;;;;;9.80;7.77;;;-1.30;99.90;;;;;;5033713;28;20238;-66
2021/11/24 03:54:26;;;;;;;8.53;7.50;;;-1.40;99.90;;;;;;5029755;28;20229;-66
2021/11/24 03:56:52;;;;;;;11.00;7.10;;;-1.40;99.90;;;;;;5020351;28;20810;-66
2021/11/24 03:59:17;;;;;;;10.40;7.63;;;-1.40;99.90;;;;;;5033013;28;20182;-68
2021/11/24 04:01:43;;;;;;;10.17;7.50;;;-1.40;99.90;;;;;;5028974;28;20193;-66
2021/11/24 04:04:08;;;;;;;9.17;7.90;;;-1.40;99.90;;;;;;5028688;28;20179;-66
2021/11/24 04:06:34;;;;;;;8.17;7.03;;;-1.30;99.90;;;;;;5033285;28;20648;-69
2021/11/24 04:09:00;;;;;;;8.60;7.40;;;-1.40;99.90;;;;;;5036680;28;20235;-66
2021/11/24 04:11:27;;;;;;;10.03;7.43;;;-1.40;99.90;;;;;;5035774;28;20194;-66
2021/11/24 04:13:52;;;;;;;10.97;7.97;;;-1.50;99.90;;;;;;5033534;28;20511;-66
2021/11/24 04:16:18;;;;;;;9.27;7.10;;;-1.50;99.90;;;;;;5033347;28;20429;-66
2021/11/24 04:18:44;;;;;;;9.80;7.60;;;-1.60;99.90;;;;;;5032591;28;20189;-69
2021/11/24 04:21:09;;;;;;;11.93;8.13;;;-1.60;99.90;;;;;;5033080;28;20178;-68
2021/11/24 04:23:35;;;;;;;8.53;7.50;;;-1.60;99.90;;;;;;5033304;28;20696;-66
2021/11/24 04:26:01;;;;;;;9.43;7.40;;;-1.50;99.90;;;;;;5033471;28;20182;-66
2021/11/24 04:28:26;;;;;;;10.30;9.30;;;-1.50;99.90;;;;;;5032967;28;20174;-66
2021/11/24 04:30:52;;;;;;;9.97;7.90;;;-1.50;99.90;;;;;;5033128;28;20225;-66
2021/11/24 04:33:18;;;;;;;10.53;8.17;;;-1.50;99.90;;;;;;5032966;28;20229;-66
2021/11/24 04:35:43;;;;;;;10.77;8.10;;;-1.50;99.90;;;;;;5033066;28;20192;-66
2021/11/24 04:38:09;;;;;;;10.67;7.40;;;-1.50;99.90;;;;;;5032824;28;20173;-66
2021/11/24 04:40:35;;;;;;;10.17;8.03;;;-1.50;99.90;;;;;;5033148;28;20813;-66
2021/11/24 04:43:03;;;;;;;11.43;8.20;;;-1.50;99.90;;;;;;5032988;28;20629;-67
2021/11/24 04:45:29;;;;;;;7.23;6.53;;;-1.60;99.90;;;;;;5033903;28;20220;-67
2021/11/24 04:47:55;;;;;;;11.83;7.50;;;-1.60;99.90;;;;;;5034500;28;20949;-67
2021/11/24 04:50:20;;;;;;;10.03;7.10;;;-1.70;99.90;;;;;;5033113;28;20469;-67
2021/11/24 04:52:46;;;;;;;12.70;8.30;;;-1.80;99.90;;;;;;5032771;28;20686;-69
2021/11/24 04:55:13;;;;;;;9.80;8.10;;;-1.80;99.90;;;;;;5035664;28;20308;-67
2021/11/24 04:57:39;;;;;;;10.77;7.93;;;-1.80;99.90;;;;;;5041684;28;20201;-68
2021/11/24 05:00:09;;;;;;;11.07;9.20;;;-1.80;99.90;;;;;;5033408;28;20523;-66
2021/11/24 05:02:34;;;;;;;8.73;7.80;;;-1.80;99.90;;;;;;5032616;28;20659;-67
2021/11/24 05:05:00;;;;;;;11.30;7.90;;;-1.80;99.90;;;;;;5037555;28;20460;-67
2021/11/24 05:07:25;;;;;;;13.20;7.70;;;-1.70;99.90;;;;;;5038852;28;20204;-70
2021/11/24 05:09:51;;;;;;;9.77;8.23;;;-1.70;99.90;;;;;;5048518;28;20201;-67
2021/11/24 05:12:16;;;;;;;9.07;8.17;;;-1.70;99.90;;;;;;5034035;28;20671;-67
2021/11/24 05:14:44;;;;;;;8.47;7.63;;;-1.70;99.90;;;;;;5042891;28;20170;-69
2021/11/24 05:17:13;;;;;;;12.23;8.60;;;-1.80;99.90;;;;;;5040861;28;20166;-67
2021/11/24 05:19:42;;;;;;;13.20;8.20;;;-1.80;99.90;;;;;;5044047;28;20427;-67
2021/11/24 05:22:09;;;;;;;8.70;7.87;;;-1.80;99.90;;;;;;5030169;28;20551;-67
2021/11/24 05:24:35;;;;;;;9.60;7.73;;;-1.90;99.90;;;;;;5030056;28;20487;-69
2021/11/24 05:27:00;;;;;;;9.80;8.77;;;-1.90;99.90;;;;;;5022382;28;20434;-66
2021/11/24 05:29:26;;;;;;;11.17;8.30;;;-1.90;99.90;;;;;;5024612;28;20709;-67
2021/11/24 05:31:52;;;;;;;10.87;8.90;;;-1.80;99.90;;;;;;5031616;28;20644;-68
2021/11/24 05:34:17;;;;;;;10.70;8.17;;;-1.90;99.90;;;;;;5032008;28;20166;-67
2021/11/24 05:36:43;;;;;;;13.53;8.57;;;-1.90;99.90;;;;;;5032018;28;20194;-67
2021/11/24 05:39:10;;;;;;;11.67;8.17;;;-2.00;99.90;;;;;;5031606;28;20262;-67
2021/11/24 05:41:39;;;;;;;9.90;8.10;;;-2.00;99.90;;;;;;5031925;28;20224;-67
2021/11/24 05:44:34;;;;;;;11.27;8.87;;;-2.10;99.90;;;;;;5031746;28;20472;-68
2021/11/24 05:47:07;;;;;;;9.47;8.50;;;-2.00;99.90;;;;;;5032118;28;20486;-67
2021/11/24 05:49:34;;;;;;;9.33;8.07;;;-2.00;99.90;;;;;;5016374;28;20459;-66
2021/11/24 05:52:00;;;;;;;8.67;7.77;;;-2.10;99.90;;;;;;5031078;28;20566;-67
2021/11/24 05:54:26;;;;;;;13.03;9.67;;;-2.00;99.90;;;;;;5027181;28;20483;-68
2021/11/24 05:56:51;;;;;;;14.80;11.47;;;-1.90;99.90;;;;;;5031837;28;20958;-68
2021/11/24 05:59:18;;;;;;;13.30;10.93;;;-1.90;99.90;;;;;;5043418;28;20226;-66
2021/11/24 06:01:44;;;;;;;13.57;10.30;;;-1.90;99.90;;;;;;5031562;28;20646;-69
2021/11/24 06:04:10;;;;;;;10.33;7.60;;;-1.80;99.90;;;;;;5038612;28;20432;-67
2021/11/24 06:06:36;;;;;;;11.33;8.27;;;-1.80;99.90;;;;;;5033001;28;20515;-66
2021/11/24 06:09:04;;;;;;;14.57;10.40;;;-1.80;99.90;;;;;;5039117;28;20165;-66
2021/11/24 06:11:29;;;;;;;10.83;9.33;;;-1.80;99.90;;;;;;5036173;28;20491;-67
2021/11/24 06:13:55;;;;;;;11.90;8.97;;;-1.80;99.90;;;;;;5035513;28;20453;-69
2021/11/24 06:16:21;;;;;;;12.20;8.67;;;-1.70;99.90;;;;;;5030158;28;20174;-67
2021/11/24 06:18:47;;;;;;;11.27;8.80;;;-1.80;99.90;;;;;;5024805;28;20198;-66
2021/11/24 06:21:13;;;;;;;9.07;8.10;;;-1.80;99.90;;;;;;5029775;28;20447;-67
2021/11/24 06:23:39;;;;;;;10.87;8.10;;;-1.80;99.90;;;;;;5023264;28;20460;-66
2021/11/24 06:26:07;;;;;;;12.83;8.27;;;-1.80;99.90;;;;;;5026004;28;20171;-67
2021/11/24 06:28:33;;;;;;;12.40;8.50;;;-1.80;99.90;;;;;;5029521;28;20506;-67
2021/11/24 06:30:59;;;;;;;11.37;8.03;;;-1.80;99.90;;;;;;5020757;28;20865;-67
2021/11/24 06:33:26;;;;;;;10.47;7.60;;;-1.80;99.90;;;;;;5029339;28;20459;-67
2021/11/24 06:35:52;;;;;;;8.83;7.93;;;-1.80;99.90;;;;;;5030027;28;20862;-68
2021/11/24 06:38:17;;;;;;;15.50;9.50;;;-1.90;99.90;;;;;;5024509;28;20979;-68
2021/11/24 06:40:45;;;;;;;10.80;8.37;;;-1.90;99.90;;;;;;5028180;28;20440;-68
2021/11/24 06:43:10;;;;;;;15.40;9.87;;;-1.80;99.90;;;;;;5030063;28;20231;-68
2021/11/24 06:45:36;;;;;;;11.50;8.87;;;-1.90;99.90;;;;;;5034219;28;20873;-68
2021/11/24 06:48:02;;;;;;;9.50;7.13;;;-1.90;99.90;;;;;;5029053;28;20178;-68
2021/11/24 06:50:28;;;;;;;12.37;9.50;;;-2.00;99.90;;;;;;5033869;28;20242;-70
2021/11/24 06:52:54;;;;;;;10.23;8.17;;;-2.00;99.90;;;;;;5025676;28;20452;-68
2021/11/24 06:55:19;;;;;;;13.60;9.10;;;-1.90;99.90;;;;;;5034788;28;20182;-69
2021/11/24 06:57:45;;;;;;;12.23;9.77;;;-1.80;99.90;;;;;;5023826;28;20195;-69
2021/11/24 07:00:11;;;;;;;9.87;8.43;;;-1.80;99.90;;;;;;5034968;28;20696;-69
2021/11/24 07:02:36;;;;;;;11.33;8.77;;;-1.80;99.90;;;;;;5033812;28;20264;-69
2021/11/24 07:05:03;;;;;;;11.57;8.43;;;-1.70;99.90;;;;;;5034901;28;20929;-67
2021/11/24 07:07:28;;;;;;;12.83;8.53;;;-1.70;99.90;;;;;;5027497;28;20179;-67
2021/11/24 07:09:54;;;;;;;10.47;8.90;;;-1.60;99.90;;;;;;5021968;28;20453;-69
2021/11/24 07:12:23;;;;;;;11.00;8.80;;;-1.50;99.90;;;;;;5031216;28;20202;-68
2021/11/24 07:14:49;;;;;;;9.90;8.97;;;-1.50;99.90;;;;;;5032951;28;20181;-68
2021/11/24 07:17:15;;;;;;;12.27;9.93;;;-1.50;99.90;;;;;;5030162;28;20453;-69
2021/11/24 07:19:41;;;;;;;10.60;9.40;;;-1.50;99.90;;;;;;5034658;28;20780;-67
2021/11/24 07:22:07;;;;;;;12.47;9.60;;;-1.50;99.90;;;;;;5032593;28;20459;-68
2021/11/24 07:24:32;;;;;;;11.33;9.70;;;-1.40;99.90;;;;;;5032478;28;20186;-67
2021/11/24 07:26:58;;;;;;;13.07;11.00;;;-1.30;99.90;;;;;;5034260;28;20730;-68
2021/11/24 07:29:24;;;;;;;15.50;10.43;;;-1.10;99.90;;;;;;5033131;28;20293;-68
2021/11/24 07:31:50;;;;;;;11.20;9.70;;;-0.50;99.90;;;;;;5028904;28;20196;-68
2021/11/24 07:34:16;;;;;;;13.30;9.60;;;0.00;99.90;;;;;;5034265;28;20563;-68
2021/11/24 07:36:41;;;;;;;22.00;12.80;;;0.70;99.90;;;;;;5025598;28;20189;-68
2021/11/24 07:39:07;;;;;;;17.73;11.67;;;1.10;99.90;;;;;;5029734;28;20641;-68
2021/11/24 07:41:33;;;;;;;17.13;12.37;;;1.50;99.90;;;;;;5032968;28;20547;-68
2021/11/24 07:43:59;;;;;;;21.70;11.20;;;1.60;99.90;;;;;;5019369;28;20229;-67
2021/11/24 07:46:24;;;;;;;14.20;10.80;;;1.70;99.90;;;;;;5005873;28;20242;-69
2021/11/24 07:48:50;;;;;;;26.13;12.70;;;1.70;99.90;;;;;;5024843;28;20182;-68
2021/11/24 07:51:19;;;;;;;14.63;11.83;;;1.80;99.90;;;;;;5031896;28;20763;-68
2021/11/24 07:53:45;;;;;;;12.73;10.80;;;1.90;99.90;;;;;;5026910;28;20210;-68
2021/11/24 07:56:11;;;;;;;15.53;10.43;;;2.00;99.90;;;;;;5025093;28;20429;-68
2021/11/24 07:58:40;;;;;;;22.60;11.97;;;2.00;99.90;;;;;;5023693;28;20440;-68
2021/11/24 08:01:07;;;;;;;19.23;11.10;;;2.00;99.90;;;;;;5030355;28;20494;-68
2021/11/24 08:03:33;;;;;;;19.83;10.97;;;2.20;99.90;;;;;;5034137;28;20997;-68
2021/11/24 08:05:58;;;;;;;12.30;10.00;;;2.80;99.90;;;;;;5031947;28;20496;-68
2021/11/24 08:08:24;;;;;;;12.60;10.63;;;3.50;99.90;;;;;;5030040;28;20272;-68
2021/11/24 08:10:49;;;;;;;12.57;10.70;;;4.30;99.90;;;;;;5033319;28;20671;-69
2021/11/24 08:13:17;;;;;;;12.40;10.30;;;4.90;99.90;;;;;;5031832;28;20216;-67
2021/11/24 08:15:42;;;;;;;12.33;11.13;;;5.30;99.90;;;;;;5032067;28;20209;-68
2021/11/24 08:18:08;;;;;;;15.63;11.10;;;5.60;99.90;;;;;;5032348;28;20469;-68
2021/11/24 08:20:33;;;;;;;14.03;11.13;;;6.30;99.90;;;;;;5026469;28;20658;-68
2021/11/24 08:22:59;;;;;;;12.80;11.57;;;6.80;99.90;;;;;;5028793;28;20321;-68
2021/11/24 08:25:24;;;;;;;13.80;12.30;;;6.80;99.90;;;;;;5027970;28;20189;-68
2021/11/24 08:27:50;;;;;;;12.37;11.17;;;6.70;99.90;;;;;;5031798;28;20656;-68
2021/11/24 08:30:15;;;;;;;13.40;11.97;;;5.90;99.90;;;;;;5031895;28;20206;-68
2021/11/24 08:32:42;;;;;;;16.40;13.27;;;5.80;99.90;;;;;;5032496;28;20194;-69
2021/11/24 08:35:08;;;;;;;18.87;12.90;;;5.50;99.90;;;;;;5031540;28;20205;-67
2021/11/24 08:37:34;;;;;;;21.60;15.40;;;5.50;99.90;;;;;;5030267;28;20505;-68
2021/11/24 08:40:00;;;;;;;18.57;13.27;;;5.80;99.90;;;;;;5029119;28;20878;-67
2021/11/24 08:42:26;;;;;;;19.83;14.17;;;6.10;99.90;;;;;;5023137;28;20194;-68
2021/11/24 08:44:52;;;;;;;18.47;14.90;;;6.40;99.90;;;;;;5031213;28;20178;-68
2021/11/24 08:47:18;;;;;;;19.10;15.03;;;6.90;99.90;;;;;;5022985;28;20437;-67
2021/11/24 08:49:44;;;;;;;16.33;14.13;;;7.90;99.90;;;;;;5029331;28;20465;-68
2021/11/24 08:52:10;;;;;;;14.57;13.17;;;9.20;99.90;;;;;;5030241;28;20452;-68
2021/11/24 08:54:37;;;;;;;14.93;13.33;;;10.40;99.90;;;;;;5025530;28;20182;-68
2021/11/24 08:57:03;;;;;;;15.33;13.67;;;11.10;99.70;;;;;;5031682;28;20185;-67
2021/11/24 08:59:29;;;;;;;17.43;14.27;;;11.80;97.90;;;;;;5030210;28;20459;-68
2021/11/24 09:01:55;;;;;;;15.47;13.53;;;12.20;96.70;;;;;;5028489;28;20429;-68
2021/11/24 09:04:21;;;;;;;19.03;14.87;;;12.80;94.00;;;;;;5024099;28;20166;-67
2021/11/24 09:06:47;;;;;;;14.97;13.47;;;13.60;92.90;;;;;;5021212;28;21016;-68
2021/11/24 09:09:12;;;;;;;16.63;15.03;;;14.10;91.40;;;;;;5028440;28;20727;-69
2021/11/24 09:11:38;;;;;;;16.73;15.33;;;14.60;88.60;;;;;;5022067;28;20292;-68
2021/11/24 09:14:04;;;;;;;17.17;15.20;;;14.90;86.40;;;;;;5031291;28;20567;-68
2021/11/24 09:16:30;;;;;;;17.47;15.70;;;15.10;83.10;;;;;;5025309;28;20182;-68
2021/11/24 09:18:55;;;;;;;16.40;14.67;;;15.70;81.00;;;;;;5022750;28;20421;-69
2021/11/24 09:21:23;;;;;;;16.80;15.17;;;16.10;78.00;;;;;;5021520;28;20262;-69
2021/11/24 09:23:50;;;;;;;17.87;16.27;;;16.00;75.70;;;;;;5031271;28;20217;-79
2021/11/24 09:26:40;;;;;;;17.57;16.07;;;15.60;76.10;;;;;;5027201;28;20441;-68
2021/11/24 09:29:06;;;;;;;19.50;17.70;;;15.30;76.50;;;;;;5026111;28;20428;-67
2021/11/24 09:31:31;;;;;;;16.73;15.03;;;14.70;77.90;;;;;;5028704;28;20464;-68
2021/11/24 09:33:58;;;;;;;17.23;15.63;;;14.10;79.30;;;;;;5027042;28;20950;-69
2021/11/24 09:36:24;;;;;;;15.70;14.23;;;14.10;80.60;;;;;;5020610;28;20261;-66
2021/11/24 09:38:50;;;;;;;17.97;16.07;;;14.00;80.50;;;;;;5026711;28;20503;-70
2021/11/24 09:41:21;;;;;;;17.30;15.60;;;13.80;81.50;;;;;;5018153;28;20568;-69
2021/11/24 09:43:51;;;;;;;17.30;15.60;;;13.80;81.90;;;;;;5027089;28;20206;-68
2021/11/24 09:46:17;;;;;;;17.87;15.90;;;13.70;81.40;;;;;;5028942;28;20447;-68
2021/11/24 09:48:45;;;;;;;16.23;14.63;;;13.90;82.90;;;;;;5031432;28;20447;-68
2021/11/24 09:51:12;;;;;;;17.63;15.73;;;14.40;81.50;;;;;;5029147;28;20472;-68
2021/11/24 09:53:40;;;;;;;17.47;15.87;;;14.80;81.00;;;;;;5024923;28;20448;-68
2021/11/24 09:56:05;;;;;;;17.00;15.50;;;14.20;80.00;;;;;;5019154;28;20421;-68
2021/11/24 09:58:32;;;;;;;18.03;16.27;;;13.60;82.60;;;;;;5028133;28;20421;-69
2021/11/24 10:00:58;;;;;;;16.77;14.97;;;14.50;82.00;;;;;;5020508;28;20272;-68
2021/11/24 10:03:25;;;;;;;15.50;14.00;;;15.40;79.20;;;;;;5022763;28;20546;-68
2021/11/24 10:05:51;;;;;;;17.00;15.30;;;15.30;78.10;;;;;;5023139;28;20907;-68
2021/11/24 10:08:17;;;;;;;17.37;15.63;;;15.60;77.20;;;;;;5017161;28;20433;-68
2021/11/24 10:10:43;;;;;;;16.30;14.63;;;14.80;77.60;;;;;;5027946;28;21283;-68
2021/11/24 10:13:10;;;;;;;16.87;15.27;;;14.60;78.80;;;;;;5025601;28;20212;-68
2021/11/24 10:15:45;;;;;;;17.70;16.10;;;13.80;79.90;;;;;;5025644;28;20232;-68
2021/11/24 10:18:24;;;;;;;17.90;16.00;;;14.10;80.90;;;;;;5021486;28;20498;-69
2021/11/24 10:21:06;;;;;;;19.57;17.67;;;13.30;82.80;;;;;;5026023;28;20515;-69
2021/11/24 10:23:38;;;;;;;18.67;16.73;;;13.00;84.20;;;;;;5021456;28;20461;-69
2021/11/24 10:26:27;;;;;;;18.53;14.67;;;12.90;84.50;;;;;;5021033;28;20432;-68
2021/11/24 10:28:57;;;;;;;15.80;14.20;;;13.00;85.50;;;;;;5022355;28;20454;-68
2021/11/24 10:31:53;;;;;;;18.77;15.80;;;13.90;83.60;;;;;;5020241;28;20461;-69
2021/11/24 10:34:28;;;;;;;16.17;14.57;;;16.10;77.90;;;;;;5024633;28;20981;-70
2021/11/24 10:36:56;;;;;;;16.03;14.63;;;17.00;74.10;;;;;;5026427;28;20490;-69
2021/11/24 10:39:23;;;;;;;15.80;14.30;;;16.50;72.10;;;;;;5027284;28;20436;-68
2021/11/24 10:41:49;;;;;;;21.43;19.33;;;15.80;74.50;;;;;;5029614;28;20421;-69
2021/11/24 10:44:28;;;;;;;17.83;15.97;;;15.20;75.70;;;;;;5024012;28;20532;-70
2021/11/24 10:46:55;;;;;;;17.37;15.60;;;15.90;75.40;;;;;;5017302;28;20527;-69
2021/11/24 10:49:50;;;;;;;17.80;16.10;;;16.70;72.80;;;;;;5030551;28;20494;-69
2021/11/24 10:52:26;;;;;;;16.43;15.03;;;17.80;69.50;;;;;;5028780;28;20996;-70
2021/11/24 10:54:56;;;;;;;16.10;14.60;;;18.20;65.40;;;;;;5030809;28;20488;-69
2021/11/24 10:57:22;;;;;;;16.40;14.70;;;17.10;66.60;;;;;;5030938;28;20504;-69
2021/11/24 10:59:48;;;;;;;16.77;15.07;;;16.40;68.10;;;;;;5030297;28;20472;-69
2021/11/24 11:02:35;;;;;;;17.57;15.60;;;15.40;69.20;;;;;;5027470;28;20220;-68
2021/11/24 11:05:21;;;;;;;16.73;15.03;;;14.40;73.50;;;;;;5017642;28;20464;-69
2021/11/24 11:07:50;;;;;;;18.00;16.03;;;14.20;72.90;;;;;;5029404;28;20464;-69
2021/11/24 11:10:27;;;;;;;43.73;33.70;;;12.20;76.30;;;;;;5031619;28;20452;-66
2021/11/24 11:13:11;;;;;;;27.60;24.00;;;9.90;84.70;;;;;;5017150;28;20452;-67
2021/11/24 11:15:39;;;;;;;33.07;24.30;;;8.70;90.40;;;;;;5027535;28;20432;-67
2021/11/24 11:18:12;;;;;;;24.57;19.30;;;7.60;93.90;;;;;;5029110;28;20801;-69
2021/11/24 11:21:01;;;;;;;30.03;21.60;;;7.80;95.80;;;;;;5026559;28;20446;-68
2021/11/24 11:23:35;;;;;;;27.20;22.80;;;9.90;93.60;;;;;;5013550;28;20548;-66
2021/11/24 11:26:10;;;;;;;21.73;17.77;;;13.10;86.80;;;;;;5028527;28;20432;-66
2021/11/24 11:28:40;;;;;;;24.97;19.33;;;11.60;85.80;;;;;;5032258;28;20929;-66
2021/11/24 11:31:09;;;;;;;17.23;15.43;;;10.90;89.00;;;;;;5026168;28;20475;-66
2021/11/24 11:33:40;;;;;;;22.90;16.70;;;12.60;87.80;;;;;;5034010;28;20448;-68
2021/11/24 11:36:11;;;;;;;19.83;17.77;;;15.10;78.00;;;;;;5033746;28;20516;-68
2021/11/24 11:38:39;;;;;;;18.83;16.83;;;17.40;71.00;;;;;;5032059;28;20429;-66
2021/11/24 11:41:06;;;;;;;25.83;23.03;;;17.70;64.80;;;;;;5033561;28;20432;-67
2021/11/24 11:43:32;;;;;;;18.87;16.97;;;15.40;67.80;;;;;;5032750;28;20468;-65
2021/11/24 11:46:11;;;;;;;16.37;14.67;;;15.10;74.20;;;;;;5031078;28;20440;-69
2021/11/24 11:48:37;;;;;;;18.07;16.27;;;16.40;68.00;;;;;;5033577;28;20522;-69
2021/11/24 11:51:04;;;;;;;16.57;14.87;;;16.30;65.30;;;;;;5029927;28;21002;-69
2021/11/24 11:53:38;;;;;;;16.33;14.63;;;15.90;66.60;;;;;;5031582;28;20222;-69
2021/11/24 11:56:11;;;;;;;16.97;15.33;;;16.10;65.90;;;;;;5032884;28;20448;-69
2021/11/24 11:59:07;;;;;;;16.20;14.73;;;16.20;65.30;;;;;;5030472;28;20421;-70
2021/11/24 12:01:41;;;;;;;16.60;14.90;;;15.70;66.50;;;;;;5031800;28;20723;-69
2021/11/24 12:04:27;;;;;;;16.03;14.33;;;15.30;65.20;;;;;;5033111;28;20435;-69
2021/11/24 12:06:53;;;;;;;14.43;12.97;;;15.00;66.20;;;;;;5031995;28;20458;-69
2021/11/24 12:09:24;;;;;;;16.63;14.40;;;15.70;65.00;;;;;;5030955;28;20425;-69
2021/11/24 12:11:59;;;;;;;13.33;11.93;;;15.60;63.90;;;;;;5031020;28;20182;-69
2021/11/24 12:14:51;;;;;;;13.60;12.30;;;15.70;64.50;;;;;;5033316;28;20424;-69
2021/11/24 12:20:02;;;;;;;13.30;12.07;;;15.60;61.20;;;;;;5031924;28;20532;-69
2021/11/24 12:22:50;;;;;;;13.37;12.17;;;15.70;62.10;;;;;;5032592;28;20463;-69
2021/11/24 12:25:25;;;;;;;13.97;12.50;;;16.50;59.70;;;;;;5030598;28;20494;-69
2021/11/24 12:27:54;;;;;;;14.00;12.60;;;17.40;58.50;;;;;;5033069;28;20937;-69
2021/11/24 12:30:42;;;;;;;14.47;13.07;;;16.60;59.30;;;;;;5023970;28;20489;-69
2021/11/24 12:33:26;;;;;;;15.37;13.87;;;16.30;60.10;;;;;;5014565;28;20449;-70
2021/11/24 12:36:11;;;;;;;15.40;13.80;;;16.30;60.00;;;;;;5023677;28;20453;-70
2021/11/24 12:38:43;;;;;;;18.47;14.07;;;15.80;60.80;;;;;;5030942;28;20431;-69
2021/11/24 12:41:13;;;;;;;14.00;12.53;;;17.20;58.90;;;;;;5025108;28;20440;-69